sensor_id;sensor_type;location;lat;lon;timestamp;temperature;humidity
5007;DHT22;2522;50.972;11.046;2022-09-23T03:32:16;8.60;99.90
5007;DHT22;2522;50.972;11.046;2022-09-23T03:34:46;8.60;99.90
5007;DHT22;2522;50.972;11.046;2022-09-23T03:37:18;8.60;99.90
5007;DHT22;2522;50.972;11.046;2022-09-23T03:39:49;8.60;99.90
5007;DHT22;2522;50.972;11.046;2022-09-23T03:42:19;8.60;99.90
5007;DHT22;2522;50.972;11.046;2022-09-23T03:44:52;8.50;99.90
5007;DHT22;2522;50.972;11.046;2022-09-23T03:47:23;8.50;99.90
5007;DHT22;2522;50.972;11.046;2022-09-23T03:49:51;8.50;99.90
5007;DHT22;2522;50.972;11.046;2022-09-23T03:52:20;8.50;99.90
5007;DHT22;2522;50.972;11.046;2022-09-23T03:54:47;8.40;99.90
5007;DHT22;2522;50.972;11.046;2022-09-23T03:57:17;8.40;99.90
5007;DHT22;2522;50.972;11.046;2022-09-23T03:59:46;8.40;99.90
5007;DHT22;2522;50.972;11.046;2022-09-23T04:02:13;8.40;99.90
5007;DHT22;2522;50.972;11.046;2022-09-23T04:04:42;8.30;99.90
5007;DHT22;2522;50.972;11.046;2022-09-23T04:07:10;8.30;99.90
5007;DHT22;2522;50.972;11.046;2022-09-23T04:09:37;8.20;99.90
5007;DHT22;2522;50.972;11.046;2022-09-23T04:12:05;8.30;99.90
5007;DHT22;2522;50.972;11.046;2022-09-23T04:14:32;8.20;99.90
5007;DHT22;2522;50.972;11.046;2022-09-23T04:16:58;8.20;99.90
5007;DHT22;2522;50.972;11.046;2022-09-23T04:19:25;8.20;99.90
5007;DHT22;2522;50.972;11.046;2022-09-23T04:21:53;8.20;99.90
5007;DHT22;2522;50.972;11.046;2022-09-23T04:24:20;8.20;99.90
5007;DHT22;2522;50.972;11.046;2022-09-23T04:26:50;8.20;99.90
5007;DHT22;2522;50.972;11.046;2022-09-23T04:29:17;8.10;99.90
5007;DHT22;2522;50.972;11.046;2022-09-23T04:31:44;8.10;99.90
5007;DHT22;2522;50.972;11.046;2022-09-23T04:34:13;8.10;99.90
5007;DHT22;2522;50.972;11.046;2022-09-23T04:36:40;8.10;99.90
5007;DHT22;2522;50.972;11.046;2022-09-23T04:39:08;8.10;99.90
5007;DHT22;2522;50.972;11.046;2022-09-23T04:41:35;8.00;99.90
5007;DHT22;2522;50.972;11.046;2022-09-23T04:44:03;8.00;99.90
5007;DHT22;2522;50.972;11.046;2022-09-23T04:46:30;7.90;99.90
5007;DHT22;2522;50.972;11.046;2022-09-23T04:48:56;7.90;99.90
5007;DHT22;2522;50.972;11.046;2022-09-23T04:51:25;7.90;99.90
5007;DHT22;2522;50.972;11.046;2022-09-23T04:53:52;7.90;99.90
5007;DHT22;2522;50.972;11.046;2022-09-23T04:56:22;7.90;99.90
5007;DHT22;2522;50.972;11.046;2022-09-23T04:58:51;7.90;99.90
5007;DHT22;2522;50.972;11.046;2022-09-23T05:01:19;7.90;99.90
5007;DHT22;2522;50.972;11.046;2022-09-23T05:03:49;7.90;99.90
5007;DHT22;2522;50.972;11.046;2022-09-23T05:06:17;7.90;99.90
5007;DHT22;2522;50.972;11.046;2022-09-23T05:08:47;7.80;99.90
5007;DHT22;2522;50.972;11.046;2022-09-23T05:11:14;7.80;99.90
5007;DHT22;2522;50.972;11.046;2022-09-23T05:13:43;7.80;99.90
5007;DHT22;2522;50.972;11.046;2022-09-23T05:16:10;7.80;99.90
5007;DHT22;2522;50.972;11.046;2022-09-23T05:18:39;7.80;99.90
5007;DHT22;2522;50.972;11.046;2022-09-23T05:21:08;7.80;99.90
5007;DHT22;2522;50.972;11.046;2022-09-23T05:23:36;7.80;99.90
5007;DHT22;2522;50.972;11.046;2022-09-23T05:26:05;7.80;99.90
5007;DHT22;2522;50.972;11.046;2022-09-23T05:28:33;7.80;99.90
5007;DHT22;2522;50.972;11.046;2022-09-23T05:31:02;7.90;99.90
5007;DHT22;2522;50.972;11.046;2022-09-23T05:33:29;7.90;99.90
5007;DHT22;2522;50.972;11.046;2022-09-23T05:35:56;7.90;99.90
5007;DHT22;2522;50.972;11.046;2022-09-23T05:38:23;7.90;99.90
5007;DHT22;2522;50.972;11.046;2022-09-23T05:40:54;8.00;99.90
5007;DHT22;2522;50.972;11.046;2022-09-23T05:43:22;8.00;99.90
5007;DHT22;2522;50.972;11.046;2022-09-23T05:45:49;8.00;99.90
5007;DHT22;2522;50.972;11.046;2022-09-23T05:48:17;8.10;99.90
5007;DHT22;2522;50.972;11.046;2022-09-23T05:50:48;8.10;99.90
5007;DHT22;2522;50.972;11.046;2022-09-23T05:53:15;8.10;99.90
5007;DHT22;2522;50.972;11.046;2022-09-23T05:55:42;8.10;99.90
5007;DHT22;2522;50.972;11.046;2022-09-23T05:58:10;8.20;99.90
5007;DHT22;2522;50.972;11.046;2022-09-23T06:00:38;8.30;99.90
5007;DHT22;2522;50.972;11.046;2022-09-23T06:03:05;8.30;99.90
5007;DHT22;2522;50.972;11.046;2022-09-23T06:05:34;8.30;99.90
5007;DHT22;2522;50.972;11.046;2022-09-23T06:08:01;8.40;99.90
5007;DHT22;2522;50.972;11.046;2022-09-23T06:10:28;8.50;99.90
5007;DHT22;2522;50.972;11.046;2022-09-23T06:12:55;8.50;99.90
5007;DHT22;2522;50.972;11.046;2022-09-23T06:15:22;8.60;99.90
5007;DHT22;2522;50.972;11.046;2022-09-23T06:17:49;8.60;99.90
5007;DHT22;2522;50.972;11.046;2022-09-23T06:20:15;8.70;99.90
5007;DHT22;2522;50.972;11.046;2022-09-23T06:22:44;8.70;99.90
5007;DHT22;2522;50.972;11.046;2022-09-23T06:25:10;8.80;99.90
5007;DHT22;2522;50.972;11.046;2022-09-23T06:27:37;8.80;99.90
5007;DHT22;2522;50.972;11.046;2022-09-23T06:30:05;8.90;99.90
5007;DHT22;2522;50.972;11.046;2022-09-23T06:32:32;9.00;99.90
5007;DHT22;2522;50.972;11.046;2022-09-23T06:34:59;9.00;99.90
5007;DHT22;2522;50.972;11.046;2022-09-23T06:37:26;9.20;99.90
5007;DHT22;2522;50.972;11.046;2022-09-23T06:39:54;9.20;99.90
5007;DHT22;2522;50.972;11.046;2022-09-23T06:42:21;9.30;99.90
5007;DHT22;2522;50.972;11.046;2022-09-23T06:44:48;9.40;99.90
5007;DHT22;2522;50.972;11.046;2022-09-23T06:47:14;9.50;99.90
5007;DHT22;2522;50.972;11.046;2022-09-23T06:49:41;9.60;99.90
5007;DHT22;2522;50.972;11.046;2022-09-23T06:52:08;9.60;99.90
5007;DHT22;2522;50.972;11.046;2022-09-23T06:54:35;9.70;99.90
5007;DHT22;2522;50.972;11.046;2022-09-23T06:57:04;9.80;99.90
5007;DHT22;2522;50.972;11.046;2022-09-23T06:59:30;9.90;99.90
5007;DHT22;2522;50.972;11.046;2022-09-23T07:01:57;10.00;99.90
5007;DHT22;2522;50.972;11.046;2022-09-23T07:04:24;10.00;99.90
5007;DHT22;2522;50.972;11.046;2022-09-23T07:06:52;10.20;99.90
5007;DHT22;2522;50.972;11.046;2022-09-23T07:09:20;10.30;99.90
5007;DHT22;2522;50.972;11.046;2022-09-23T07:11:46;10.40;99.90
5007;DHT22;2522;50.972;11.046;2022-09-23T07:14:15;10.50;99.90
5007;DHT22;2522;50.972;11.046;2022-09-23T07:16:41;10.60;99.90
5007;DHT22;2522;50.972;11.046;2022-09-23T07:19:08;10.70;99.90
5007;DHT22;2522;50.972;11.046;2022-09-23T07:21:36;10.80;99.90
5007;DHT22;2522;50.972;11.046;2022-09-23T07:24:03;11.00;99.90
5007;DHT22;2522;50.972;11.046;2022-09-23T07:26:30;11.10;99.90
5007;DHT22;2522;50.972;11.046;2022-09-23T07:29:00;11.20;99.90
5007;DHT22;2522;50.972;11.046;2022-09-23T07:31:31;11.30;99.90
5007;DHT22;2522;50.972;11.046;2022-09-23T07:33:58;11.40;99.90
5007;DHT22;2522;50.972;11.046;2022-09-23T07:36:27;11.50;99.90
5007;DHT22;2522;50.972;11.046;2022-09-23T07:38:57;11.60;99.90
5007;DHT22;2522;50.972;11.046;2022-09-23T07:41:28;11.70;99.90
5007;DHT22;2522;50.972;11.046;2022-09-23T07:43:56;11.90;99.90
5007;DHT22;2522;50.972;11.046;2022-09-23T07:46:26;11.90;99.90
5007;DHT22;2522;50.972;11.046;2022-09-23T07:48:54;12.10;99.90
5007;DHT22;2522;50.972;11.046;2022-09-23T07:51:23;12.10;99.90
5007;DHT22;2522;50.972;11.046;2022-09-23T07:53:52;12.30;99.90
5007;DHT22;2522;50.972;11.046;2022-09-23T07:56:20;12.40;99.90
5007;DHT22;2522;50.972;11.046;2022-09-23T07:58:49;12.50;99.90
5007;DHT22;2522;50.972;11.046;2022-09-23T08:01:24;12.60;99.90
5007;DHT22;2522;50.972;11.046;2022-09-23T08:03:51;12.80;99.90
5007;DHT22;2522;50.972;11.046;2022-09-23T08:06:19;13.00;99.90
5007;DHT22;2522;50.972;11.046;2022-09-23T08:08:46;13.10;99.90
5007;DHT22;2522;50.972;11.046;2022-09-23T08:11:13;13.20;99.90
5007;DHT22;2522;50.972;11.046;2022-09-23T08:13:40;13.30;99.90
5007;DHT22;2522;50.972;11.046;2022-09-23T08:16:07;13.40;99.90
5007;DHT22;2522;50.972;11.046;2022-09-23T08:18:34;13.60;99.90
5007;DHT22;2522;50.972;11.046;2022-09-23T08:21:01;13.70;99.90
5007;DHT22;2522;50.972;11.046;2022-09-23T08:23:30;13.80;99.90
5007;DHT22;2522;50.972;11.046;2022-09-23T08:25:59;14.00;99.90
5007;DHT22;2522;50.972;11.046;2022-09-23T08:28:26;14.10;99.90
5007;DHT22;2522;50.972;11.046;2022-09-23T08:30:53;14.30;99.90
5007;DHT22;2522;50.972;11.046;2022-09-23T08:33:20;14.50;99.90
5007;DHT22;2522;50.972;11.046;2022-09-23T08:35:47;14.60;99.90
5007;DHT22;2522;50.972;11.046;2022-09-23T08:38:14;14.70;99.90
5007;DHT22;2522;50.972;11.046;2022-09-23T08:40:44;14.80;99.90
5007;DHT22;2522;50.972;11.046;2022-09-23T08:43:18;15.00;99.90
5007;DHT22;2522;50.972;11.046;2022-09-23T08:45:47;15.10;99.90
5007;DHT22;2522;50.972;11.046;2022-09-23T08:48:21;15.20;99.90
5007;DHT22;2522;50.972;11.046;2022-09-23T08:50:54;15.30;99.90
5007;DHT22;2522;50.972;11.046;2022-09-23T08:53:24;15.40;99.90
5007;DHT22;2522;50.972;11.046;2022-09-23T08:55:54;15.40;99.90
5007;DHT22;2522;50.972;11.046;2022-09-23T08:58:32;15.40;99.90
5007;DHT22;2522;50.972;11.046;2022-09-23T09:01:11;15.50;99.90
5007;DHT22;2522;50.972;11.046;2022-09-23T09:03:45;15.60;99.90
5007;DHT22;2522;50.972;11.046;2022-09-23T09:06:16;15.60;99.90
5007;DHT22;2522;50.972;11.046;2022-09-23T09:08:51;15.70;99.90
5007;DHT22;2522;50.972;11.046;2022-09-23T09:11:22;15.80;99.90
5007;DHT22;2522;50.972;11.046;2022-09-23T09:13:58;15.90;99.90
5007;DHT22;2522;50.972;11.046;2022-09-23T09:16:54;15.90;99.90
5007;DHT22;2522;50.972;11.046;2022-09-23T09:19:33;15.90;99.90
5007;DHT22;2522;50.972;11.046;2022-09-23T09:22:12;16.00;99.90
5007;DHT22;2522;50.972;11.046;2022-09-23T09:24:43;16.00;99.90
5007;DHT22;2522;50.972;11.046;2022-09-23T09:27:13;16.00;99.90
5007;DHT22;2522;50.972;11.046;2022-09-23T09:29:43;16.10;99.90
5007;DHT22;2522;50.972;11.046;2022-09-23T09:32:17;16.10;99.90
5007;DHT22;2522;50.972;11.046;2022-09-23T09:34:48;16.20;99.90
5007;DHT22;2522;50.972;11.046;2022-09-23T09:37:23;16.40;99.90
5007;DHT22;2522;50.972;11.046;2022-09-23T09:39:51;16.40;99.90
5007;DHT22;2522;50.972;11.046;2022-09-23T09:42:21;16.40;99.90
5007;DHT22;2522;50.972;11.046;2022-09-23T09:44:56;16.40;99.90
5007;DHT22;2522;50.972;11.046;2022-09-23T09:47:29;16.50;99.90
5007;DHT22;2522;50.972;11.046;2022-09-23T09:50:05;16.60;99.90
5007;DHT22;2522;50.972;11.046;2022-09-23T09:52:32;16.80;99.90
5007;DHT22;2522;50.972;11.046;2022-09-23T09:55:21;16.90;99.90
5007;DHT22;2522;50.972;11.046;2022-09-23T09:57:53;16.90;99.90
5007;DHT22;2522;50.972;11.046;2022-09-23T10:00:40;17.00;99.90
5007;DHT22;2522;50.972;11.046;2022-09-23T10:03:26;17.00;99.90
5007;DHT22;2522;50.972;11.046;2022-09-23T10:05:54;17.10;99.90
5007;DHT22;2522;50.972;11.046;2022-09-23T10:08:25;17.20;99.90
5007;DHT22;2522;50.972;11.046;2022-09-23T10:11:02;17.30;99.90
5007;DHT22;2522;50.972;11.046;2022-09-23T10:13:31;17.40;99.90
5007;DHT22;2522;50.972;11.046;2022-09-23T10:15:59;17.50;99.90
5007;DHT22;2522;50.972;11.046;2022-09-23T10:18:29;17.50;99.90
5007;DHT22;2522;50.972;11.046;2022-09-23T10:21:00;17.60;99.90
5007;DHT22;2522;50.972;11.046;2022-09-23T10:23:28;17.70;99.90
5007;DHT22;2522;50.972;11.046;2022-09-23T10:25:59;17.90;99.90
5007;DHT22;2522;50.972;11.046;2022-09-23T10:28:38;18.00;99.90
5007;DHT22;2522;50.972;11.046;2022-09-23T10:31:08;18.10;99.90
5007;DHT22;2522;50.972;11.046;2022-09-23T10:33:40;18.30;99.90
5007;DHT22;2522;50.972;11.046;2022-09-23T10:36:10;18.50;99.90
5007;DHT22;2522;50.972;11.046;2022-09-23T10:38:37;18.60;99.90
5007;DHT22;2522;50.972;11.046;2022-09-23T10:41:05;18.70;99.90
5007;DHT22;2522;50.972;11.046;2022-09-23T10:44:04;18.90;99.90
5007;DHT22;2522;50.972;11.046;2022-09-23T10:47:01;19.10;99.90
5007;DHT22;2522;50.972;11.046;2022-09-23T10:49:52;19.30;99.90
5007;DHT22;2522;50.972;11.046;2022-09-23T10:52:48;19.40;99.90
5007;DHT22;2522;50.972;11.046;2022-09-23T10:55:30;19.60;99.50
5007;DHT22;2522;50.972;11.046;2022-09-23T10:58:19;19.70;99.00
5007;DHT22;2522;50.972;11.046;2022-09-23T11:00:57;19.90;98.10
5007;DHT22;2522;50.972;11.046;2022-09-23T11:03:51;19.90;97.70
5007;DHT22;2522;50.972;11.046;2022-09-23T11:06:25;19.80;97.00
5007;DHT22;2522;50.972;11.046;2022-09-23T11:09:07;19.70;96.60
5007;DHT22;2522;50.972;11.046;2022-09-23T11:11:47;19.60;96.20
5007;DHT22;2522;50.972;11.046;2022-09-23T11:14:47;19.50;95.40
5007;DHT22;2522;50.972;11.046;2022-09-23T11:17:38;19.40;94.90
5007;DHT22;2522;50.972;11.046;2022-09-23T11:20:22;19.40;95.30
5007;DHT22;2522;50.972;11.046;2022-09-23T11:23:04;19.40;94.90
5007;DHT22;2522;50.972;11.046;2022-09-23T11:25:42;19.40;94.60
5007;DHT22;2522;50.972;11.046;2022-09-23T11:28:26;19.50;94.10
5007;DHT22;2522;50.972;11.046;2022-09-23T11:31:00;19.50;94.20
5007;DHT22;2522;50.972;11.046;2022-09-23T11:33:50;19.50;93.40
5007;DHT22;2522;50.972;11.046;2022-09-23T11:36:25;19.40;91.80
5007;DHT22;2522;50.972;11.046;2022-09-23T11:38:54;19.40;91.70
5007;DHT22;2522;50.972;11.046;2022-09-23T11:41:24;19.20;91.40
5007;DHT22;2522;50.972;11.046;2022-09-23T11:43:59;19.10;91.70
5007;DHT22;2522;50.972;11.046;2022-09-23T11:46:32;19.10;92.40
5007;DHT22;2522;50.972;11.046;2022-09-23T11:49:08;19.00;92.50
5007;DHT22;2522;50.972;11.046;2022-09-23T11:51:42;19.00;93.00
5007;DHT22;2522;50.972;11.046;2022-09-23T11:54:14;19.00;92.60
5007;DHT22;2522;50.972;11.046;2022-09-23T11:56:44;19.00;92.40
5007;DHT22;2522;50.972;11.046;2022-09-23T11:59:16;19.00;92.60
5007;DHT22;2522;50.972;11.046;2022-09-23T12:01:48;19.00;92.20
5007;DHT22;2522;50.972;11.046;2022-09-23T12:04:25;19.00;92.20
5007;DHT22;2522;50.972;11.046;2022-09-23T12:06:58;19.10;92.30
5007;DHT22;2522;50.972;11.046;2022-09-23T12:09:31;19.10;92.50
5007;DHT22;2522;50.972;11.046;2022-09-23T12:12:03;19.10;92.00
5007;DHT22;2522;50.972;11.046;2022-09-23T12:14:40;19.10;91.80
5007;DHT22;2522;50.972;11.046;2022-09-23T12:20:28;19.00;91.50
5007;DHT22;2522;50.972;11.046;2022-09-23T12:23:06;19.10;91.50
5007;DHT22;2522;50.972;11.046;2022-09-23T12:25:42;19.10;91.70
5007;DHT22;2522;50.972;11.046;2022-09-23T12:28:14;19.20;91.70
5007;DHT22;2522;50.972;11.046;2022-09-23T12:30:43;19.20;91.70
5007;DHT22;2522;50.972;11.046;2022-09-23T12:33:19;19.30;91.50
5007;DHT22;2522;50.972;11.046;2022-09-23T12:35:53;19.30;91.20
5007;DHT22;2522;50.972;11.046;2022-09-23T12:38:24;19.30;91.20
5007;DHT22;2522;50.972;11.046;2022-09-23T12:40:53;19.40;91.40
5007;DHT22;2522;50.972;11.046;2022-09-23T12:43:27;19.40;91.40
5007;DHT22;2522;50.972;11.046;2022-09-23T12:46:15;19.50;91.80
5007;DHT22;2522;50.972;11.046;2022-09-23T12:48:44;19.60;91.30
5007;DHT22;2522;50.972;11.046;2022-09-23T12:51:20;19.60;91.60
5007;DHT22;2522;50.972;11.046;2022-09-23T12:56:57;19.80;90.60
5007;DHT22;2522;50.972;11.046;2022-09-23T12:59:26;19.80;90.50
5007;DHT22;2522;50.972;11.046;2022-09-23T13:01:53;19.80;90.60
5007;DHT22;2522;50.972;11.046;2022-09-23T13:04:32;19.80;90.30
5007;DHT22;2522;50.972;11.046;2022-09-23T13:07:21;19.80;89.50
5007;DHT22;2522;50.972;11.046;2022-09-23T13:09:51;19.80;90.10
5007;DHT22;2522;50.972;11.046;2022-09-23T13:12:22;19.80;89.70
5007;DHT22;2522;50.972;11.046;2022-09-23T13:14:53;19.80;88.80
5007;DHT22;2522;50.972;11.046;2022-09-23T13:17:23;19.80;88.80
5007;DHT22;2522;50.972;11.046;2022-09-23T13:19:59;19.80;88.00
5007;DHT22;2522;50.972;11.046;2022-09-23T13:25:24;19.90;86.60
5007;DHT22;2522;50.972;11.046;2022-09-23T13:27:53;19.90;87.30
5007;DHT22;2522;50.972;11.046;2022-09-23T13:30:21;19.80;87.00
5007;DHT22;2522;50.972;11.046;2022-09-23T13:33:00;19.80;85.80
5007;DHT22;2522;50.972;11.046;2022-09-23T13:35:31;19.80;85.20
5007;DHT22;2522;50.972;11.046;2022-09-23T13:38:08;19.80;84.70
5007;DHT22;2522;50.972;11.046;2022-09-23T13:40:36;19.90;84.00
5007;DHT22;2522;50.972;11.046;2022-09-23T13:43:09;19.80;84.20
5007;DHT22;2522;50.972;11.046;2022-09-23T13:45:39;19.80;83.80
5007;DHT22;2522;50.972;11.046;2022-09-23T13:48:11;19.70;84.00
5007;DHT22;2522;50.972;11.046;2022-09-23T13:50:42;19.80;84.40
5007;DHT22;2522;50.972;11.046;2022-09-23T13:53:16;19.70;84.80
5007;DHT22;2522;50.972;11.046;2022-09-23T13:55:45;19.70;84.50
5007;DHT22;2522;50.972;11.046;2022-09-23T13:58:15;19.70;84.50
5007;DHT22;2522;50.972;11.046;2022-09-23T14:00:44;19.70;84.50
5007;DHT22;2522;50.972;11.046;2022-09-23T14:03:23;19.60;84.30
5007;DHT22;2522;50.972;11.046;2022-09-23T14:05:50;19.60;85.30
5007;DHT22;2522;50.972;11.046;2022-09-23T14:08:19;19.50;85.00
5007;DHT22;2522;50.972;11.046;2022-09-23T14:10:47;19.50;85.10
5007;DHT22;2522;50.972;11.046;2022-09-23T14:13:16;19.30;85.40
5007;DHT22;2522;50.972;11.046;2022-09-23T14:15:44;19.30;86.10
5007;DHT22;2522;50.972;11.046;2022-09-23T14:18:16;19.30;85.60
5007;DHT22;2522;50.972;11.046;2022-09-23T14:20:45;19.30;84.80
5007;DHT22;2522;50.972;11.046;2022-09-23T14:23:13;19.30;85.10
5007;DHT22;2522;50.972;11.046;2022-09-23T14:25:42;19.30;85.10
5007;DHT22;2522;50.972;11.046;2022-09-23T14:28:13;19.30;84.80
5007;DHT22;2522;50.972;11.046;2022-09-23T14:30:41;19.30;84.30
5007;DHT22;2522;50.972;11.046;2022-09-23T14:33:14;19.30;83.80
5007;DHT22;2522;50.972;11.046;2022-09-23T14:35:43;19.30;83.60
5007;DHT22;2522;50.972;11.046;2022-09-23T14:38:19;19.20;84.40
5007;DHT22;2522;50.972;11.046;2022-09-23T14:41:17;19.20;83.70
5007;DHT22;2522;50.972;11.046;2022-09-23T14:43:49;19.10;83.90
5007;DHT22;2522;50.972;11.046;2022-09-23T14:46:18;19.10;84.50
5007;DHT22;2522;50.972;11.046;2022-09-23T14:49:04;19.00;83.70
5007;DHT22;2522;50.972;11.046;2022-09-23T14:51:36;18.90;84.10
5007;DHT22;2522;50.972;11.046;2022-09-23T14:54:40;18.90;84.10
5007;DHT22;2522;50.972;11.046;2022-09-23T14:57:25;18.80;84.10
5007;DHT22;2522;50.972;11.046;2022-09-23T14:59:53;18.80;85.10
5007;DHT22;2522;50.972;11.046;2022-09-23T15:02:27;18.80;85.40
5007;DHT22;2522;50.972;11.046;2022-09-23T15:05:07;18.70;85.50
5007;DHT22;2522;50.972;11.046;2022-09-23T15:07:35;18.70;85.20
5007;DHT22;2522;50.972;11.046;2022-09-23T15:10:02;18.70;85.50
5007;DHT22;2522;50.972;11.046;2022-09-23T15:12:34;18.70;85.90
5007;DHT22;2522;50.972;11.046;2022-09-23T15:15:01;18.80;86.30
5007;DHT22;2522;50.972;11.046;2022-09-23T15:17:31;18.60;86.20
5007;DHT22;2522;50.972;11.046;2022-09-23T15:20:02;18.70;85.90
5007;DHT22;2522;50.972;11.046;2022-09-23T15:22:29;18.70;85.50
5007;DHT22;2522;50.972;11.046;2022-09-23T15:25:14;18.70;85.50
5007;DHT22;2522;50.972;11.046;2022-09-23T15:27:55;18.70;85.60
5007;DHT22;2522;50.972;11.046;2022-09-23T15:30:22;18.70;86.20
5007;DHT22;2522;50.972;11.046;2022-09-23T15:32:49;18.70;86.50
5007;DHT22;2522;50.972;11.046;2022-09-23T15:35:17;18.80;86.90
5007;DHT22;2522;50.972;11.046;2022-09-23T15:37:46;18.80;86.40
5007;DHT22;2522;50.972;11.046;2022-09-23T15:40:19;18.80;85.90
5007;DHT22;2522;50.972;11.046;2022-09-23T15:42:49;18.80;86.00
5007;DHT22;2522;50.972;11.046;2022-09-23T15:45:18;18.80;86.80
5007;DHT22;2522;50.972;11.046;2022-09-23T15:47:46;18.80;86.90
5007;DHT22;2522;50.972;11.046;2022-09-23T15:50:13;18.80;87.00
5007;DHT22;2522;50.972;11.046;2022-09-23T15:52:40;18.70;87.10
5007;DHT22;2522;50.972;11.046;2022-09-23T15:55:14;18.70;87.50
5007;DHT22;2522;50.972;11.046;2022-09-23T15:57:41;18.70;87.10
5007;DHT22;2522;50.972;11.046;2022-09-23T16:00:10;18.60;87.10
5007;DHT22;2522;50.972;11.046;2022-09-23T16:02:39;18.60;87.00
5007;DHT22;2522;50.972;11.046;2022-09-23T16:05:13;18.60;87.10
5007;DHT22;2522;50.972;11.046;2022-09-23T16:07:43;18.50;86.70
5007;DHT22;2522;50.972;11.046;2022-09-23T16:10:10;18.40;86.60
5007;DHT22;2522;50.972;11.046;2022-09-23T16:12:37;18.40;87.00
5007;DHT22;2522;50.972;11.046;2022-09-23T16:15:11;18.30;86.90
5007;DHT22;2522;50.972;11.046;2022-09-23T16:17:38;18.20;87.20
5007;DHT22;2522;50.972;11.046;2022-09-23T16:20:07;18.10;87.30
5007;DHT22;2522;50.972;11.046;2022-09-23T16:22:34;18.10;87.60
5007;DHT22;2522;50.972;11.046;2022-09-23T16:25:00;18.00;87.40
5007;DHT22;2522;50.972;11.046;2022-09-23T16:27:27;17.90;87.60
5007;DHT22;2522;50.972;11.046;2022-09-23T16:29:54;17.90;87.90
5007;DHT22;2522;50.972;11.046;2022-09-23T16:32:22;17.80;88.10
5007;DHT22;2522;50.972;11.046;2022-09-23T16:34:49;17.70;88.40
5007;DHT22;2522;50.972;11.046;2022-09-23T16:37:16;17.60;88.90
5007;DHT22;2522;50.972;11.046;2022-09-23T16:39:47;17.60;89.40
5007;DHT22;2522;50.972;11.046;2022-09-23T16:42:14;17.50;89.70
5007;DHT22;2522;50.972;11.046;2022-09-23T16:44:41;17.50;90.00
5007;DHT22;2522;50.972;11.046;2022-09-23T16:47:07;17.30;90.00
5007;DHT22;2522;50.972;11.046;2022-09-23T16:49:35;17.30;90.20
5007;DHT22;2522;50.972;11.046;2022-09-23T16:52:02;17.20;90.30
5007;DHT22;2522;50.972;11.046;2022-09-23T16:54:29;17.10;90.40
5007;DHT22;2522;50.972;11.046;2022-09-23T16:56:56;17.10;90.40
5007;DHT22;2522;50.972;11.046;2022-09-23T16:59:23;17.00;90.50
5007;DHT22;2522;50.972;11.046;2022-09-23T17:02:11;16.90;90.70
5007;DHT22;2522;50.972;11.046;2022-09-23T17:04:56;16.90;90.90
5007;DHT22;2522;50.972;11.046;2022-09-23T17:07:23;16.80;91.10
5007;DHT22;2522;50.972;11.046;2022-09-23T17:09:50;16.70;91.20
5007;DHT22;2522;50.972;11.046;2022-09-23T17:12:23;16.60;91.80
5007;DHT22;2522;50.972;11.046;2022-09-23T17:14:51;16.60;91.70
5007;DHT22;2522;50.972;11.046;2022-09-23T17:17:18;16.50;91.90
5007;DHT22;2522;50.972;11.046;2022-09-23T17:19:45;16.50;92.20
5007;DHT22;2522;50.972;11.046;2022-09-23T17:22:13;16.40;92.40
5007;DHT22;2522;50.972;11.046;2022-09-23T17:24:40;16.50;92.60
5007;DHT22;2522;50.972;11.046;2022-09-23T17:27:07;16.30;92.70
5007;DHT22;2522;50.972;11.046;2022-09-23T17:29:34;16.20;92.90
5007;DHT22;2522;50.972;11.046;2022-09-23T17:32:01;16.20;93.10
5007;DHT22;2522;50.972;11.046;2022-09-23T17:34:29;16.10;93.40
5007;DHT22;2522;50.972;11.046;2022-09-23T17:36:58;16.00;93.60
5007;DHT22;2522;50.972;11.046;2022-09-23T17:39:28;16.10;93.90
5007;DHT22;2522;50.972;11.046;2022-09-23T17:41:56;15.90;94.00
5007;DHT22;2522;50.972;11.046;2022-09-23T17:44:23;15.80;94.20
5007;DHT22;2522;50.972;11.046;2022-09-23T17:46:50;15.80;94.40
5007;DHT22;2522;50.972;11.046;2022-09-23T17:49:17;15.70;94.60
5007;DHT22;2522;50.972;11.046;2022-09-23T17:51:43;15.60;94.80
5007;DHT22;2522;50.972;11.046;2022-09-23T17:54:10;15.60;95.00
5007;DHT22;2522;50.972;11.046;2022-09-23T17:56:40;15.60;95.20
5007;DHT22;2522;50.972;11.046;2022-09-23T17:59:09;15.50;95.30
5007;DHT22;2522;50.972;11.046;2022-09-23T18:01:37;15.40;95.40
5007;DHT22;2522;50.972;11.046;2022-09-23T18:04:04;15.40;95.60
5007;DHT22;2522;50.972;11.046;2022-09-23T18:06:32;15.40;95.70
5007;DHT22;2522;50.972;11.046;2022-09-23T18:09:00;15.20;95.90
5007;DHT22;2522;50.972;11.046;2022-09-23T18:11:31;15.30;96.10
5007;DHT22;2522;50.972;11.046;2022-09-23T18:14:01;15.30;96.40
5007;DHT22;2522;50.972;11.046;2022-09-23T18:16:30;15.10;96.50
5007;DHT22;2522;50.972;11.046;2022-09-23T18:19:00;15.10;96.70
5007;DHT22;2522;50.972;11.046;2022-09-23T18:21:29;15.00;96.80
5007;DHT22;2522;50.972;11.046;2022-09-23T18:23:57;15.00;96.90
5007;DHT22;2522;50.972;11.046;2022-09-23T18:26:25;15.00;97.10
5007;DHT22;2522;50.972;11.046;2022-09-23T18:28:53;15.10;97.30
5007;DHT22;2522;50.972;11.046;2022-09-23T18:31:23;14.90;97.30
5007;DHT22;2522;50.972;11.046;2022-09-23T18:33:52;14.90;97.50
5007;DHT22;2522;50.972;11.046;2022-09-23T18:36:20;14.90;97.60
5007;DHT22;2522;50.972;11.046;2022-09-23T18:38:48;14.80;97.70
5007;DHT22;2522;50.972;11.046;2022-09-23T18:41:16;14.80;97.80
5007;DHT22;2522;50.972;11.046;2022-09-23T18:43:43;14.80;97.90
5007;DHT22;2522;50.972;11.046;2022-09-23T18:46:11;14.80;97.90
5007;DHT22;2522;50.972;11.046;2022-09-23T18:48:40;14.80;98.10
5007;DHT22;2522;50.972;11.046;2022-09-23T18:51:31;14.70;98.20
5007;DHT22;2522;50.972;11.046;2022-09-23T18:54:01;14.70;98.40
5007;DHT22;2522;50.972;11.046;2022-09-23T18:56:29;14.60;98.50
5007;DHT22;2522;50.972;11.046;2022-09-23T18:58:57;14.60;98.60
5007;DHT22;2522;50.972;11.046;2022-09-23T19:01:24;14.60;98.70
5007;DHT22;2522;50.972;11.046;2022-09-23T19:03:54;14.50;98.80
5007;DHT22;2522;50.972;11.046;2022-09-23T19:06:22;14.50;99.00
5007;DHT22;2522;50.972;11.046;2022-09-23T19:08:49;14.40;99.00
5007;DHT22;2522;50.972;11.046;2022-09-23T19:11:17;14.40;99.20
5007;DHT22;2522;50.972;11.046;2022-09-23T19:13:44;14.40;99.30
5007;DHT22;2522;50.972;11.046;2022-09-23T19:16:13;14.40;99.40
5007;DHT22;2522;50.972;11.046;2022-09-23T19:18:42;14.40;99.60
5007;DHT22;2522;50.972;11.046;2022-09-23T19:21:13;14.30;99.70
5007;DHT22;2522;50.972;11.046;2022-09-23T19:23:45;14.30;99.90
5007;DHT22;2522;50.972;11.046;2022-09-23T19:26:15;14.30;99.90
5007;DHT22;2522;50.972;11.046;2022-09-23T19:28:47;14.30;99.90
5007;DHT22;2522;50.972;11.046;2022-09-23T19:31:17;14.30;99.90
5007;DHT22;2522;50.972;11.046;2022-09-23T19:33:50;14.30;99.90
5007;DHT22;2522;50.972;11.046;2022-09-23T19:36:26;14.20;99.90
5007;DHT22;2522;50.972;11.046;2022-09-23T19:38:55;14.20;99.90
5007;DHT22;2522;50.972;11.046;2022-09-23T19:41:23;14.20;99.90
5007;DHT22;2522;50.972;11.046;2022-09-23T19:43:53;14.20;99.90
5007;DHT22;2522;50.972;11.046;2022-09-23T19:46:23;14.20;99.90
5007;DHT22;2522;50.972;11.046;2022-09-23T19:48:50;14.10;99.90
5007;DHT22;2522;50.972;11.046;2022-09-23T19:51:17;14.20;99.90
5007;DHT22;2522;50.972;11.046;2022-09-23T19:53:46;14.10;99.90